sensor_id;sensor_type;location;lat;lon;timestamp;temperature;humidity
69715;HTU21D;56981;53.532;49.398;2023-07-31T00:00:47;18.99;81.19
69715;HTU21D;56981;53.532;49.398;2023-07-31T00:03:13;18.99;81.79
69715;HTU21D;56981;53.532;49.398;2023-07-31T00:05:38;19.03;82.01
69715;HTU21D;56981;53.532;49.398;2023-07-31T00:08:04;18.96;81.93
69715;HTU21D;56981;53.532;49.398;2023-07-31T00:10:30;19.01;81.47
69715;HTU21D;56981;53.532;49.398;2023-07-31T00:12:56;19.05;81.43
69715;HTU21D;56981;53.532;49.398;2023-07-31T00:15:22;19.02;81.30
69715;HTU21D;56981;53.532;49.398;2023-07-31T00:17:48;18.89;80.59
69715;HTU21D;56981;53.532;49.398;2023-07-31T00:20:14;18.74;81.61
69715;HTU21D;56981;53.532;49.398;2023-07-31T00:22:40;18.63;81.74
69715;HTU21D;56981;53.532;49.398;2023-07-31T00:25:06;18.62;82.87
69715;HTU21D;56981;53.532;49.398;2023-07-31T00:27:32;18.53;82.34
69715;HTU21D;56981;53.532;49.398;2023-07-31T00:29:58;18.50;82.71
69715;HTU21D;56981;53.532;49.398;2023-07-31T00:32:24;18.47;83.24
69715;HTU21D;56981;53.532;49.398;2023-07-31T00:34:50;18.44;82.78
69715;HTU21D;56981;53.532;49.398;2023-07-31T00:37:16;18.40;82.95
69715;HTU21D;56981;53.532;49.398;2023-07-31T00:39:42;18.36;81.72
69715;HTU21D;56981;53.532;49.398;2023-07-31T00:42:08;18.41;81.78
69715;HTU21D;56981;53.532;49.398;2023-07-31T00:44:34;18.41;81.14
69715;HTU21D;56981;53.532;49.398;2023-07-31T00:47:00;18.43;81.98
69715;HTU21D;56981;53.532;49.398;2023-07-31T00:49:27;18.41;80.20
69715;HTU21D;56981;53.532;49.398;2023-07-31T00:51:53;18.40;80.78
69715;HTU21D;56981;53.532;49.398;2023-07-31T00:54:19;18.42;80.31
69715;HTU21D;56981;53.532;49.398;2023-07-31T00:56:46;18.50;79.41
69715;HTU21D;56981;53.532;49.398;2023-07-31T00:59:14;18.41;80.52
69715;HTU21D;56981;53.532;49.398;2023-07-31T01:01:40;18.38;80.90
69715;HTU21D;56981;53.532;49.398;2023-07-31T01:04:06;18.35;79.27
69715;HTU21D;56981;53.532;49.398;2023-07-31T01:06:36;18.35;78.37
69715;HTU21D;56981;53.532;49.398;2023-07-31T01:09:19;18.38;78.85
69715;HTU21D;56981;53.532;49.398;2023-07-31T01:11:53;18.44;79.78
69715;HTU21D;56981;53.532;49.398;2023-07-31T01:14:22;18.55;77.65
69715;HTU21D;56981;53.532;49.398;2023-07-31T01:16:48;18.67;76.86
69715;HTU21D;56981;53.532;49.398;2023-07-31T01:19:15;18.74;75.92
69715;HTU21D;56981;53.532;49.398;2023-07-31T01:27:24;19.31;74.35
69715;HTU21D;56981;53.532;49.398;2023-07-31T01:30:08;19.30;75.34
69715;HTU21D;56981;53.532;49.398;2023-07-31T01:32:42;19.26;74.01
69715;HTU21D;56981;53.532;49.398;2023-07-31T01:35:10;19.25;74.09
69715;HTU21D;56981;53.532;49.398;2023-07-31T01:37:36;19.28;73.44
69715;HTU21D;56981;53.532;49.398;2023-07-31T01:40:03;19.27;74.15
69715;HTU21D;56981;53.532;49.398;2023-07-31T01:42:29;19.30;74.15
69715;HTU21D;56981;53.532;49.398;2023-07-31T01:44:55;19.30;73.51
69715;HTU21D;56981;53.532;49.398;2023-07-31T01:47:21;19.31;74.39
69715;HTU21D;56981;53.532;49.398;2023-07-31T01:49:49;19.31;73.15
69715;HTU21D;56981;53.532;49.398;2023-07-31T01:52:15;19.28;73.06
69715;HTU21D;56981;53.532;49.398;2023-07-31T01:54:41;19.26;73.42
69715;HTU21D;56981;53.532;49.398;2023-07-31T01:57:07;19.30;74.07
69715;HTU21D;56981;53.532;49.398;2023-07-31T01:59:33;19.32;73.24
69715;HTU21D;56981;53.532;49.398;2023-07-31T02:01:58;19.31;72.96
69715;HTU21D;56981;53.532;49.398;2023-07-31T02:04:24;19.28;73.94
69715;HTU21D;56981;53.532;49.398;2023-07-31T02:06:50;19.26;73.28
69715;HTU21D;56981;53.532;49.398;2023-07-31T02:09:16;19.30;74.54
69715;HTU21D;56981;53.532;49.398;2023-07-31T02:11:42;19.39;73.73
69715;HTU21D;56981;53.532;49.398;2023-07-31T02:14:08;19.43;73.43
69715;HTU21D;56981;53.532;49.398;2023-07-31T02:16:34;19.31;72.66
69715;HTU21D;56981;53.532;49.398;2023-07-31T02:19:00;19.28;73.91
69715;HTU21D;56981;53.532;49.398;2023-07-31T02:21:26;19.29;73.22
69715;HTU21D;56981;53.532;49.398;2023-07-31T02:23:52;19.33;74.11
69715;HTU21D;56981;53.532;49.398;2023-07-31T02:26:18;19.42;73.84
69715;HTU21D;56981;53.532;49.398;2023-07-31T02:28:44;19.45;73.56
69715;HTU21D;56981;53.532;49.398;2023-07-31T02:31:10;19.52;73.57
69715;HTU21D;56981;53.532;49.398;2023-07-31T02:33:36;19.50;73.50
69715;HTU21D;56981;53.532;49.398;2023-07-31T02:36:02;19.52;73.35
69715;HTU21D;56981;53.532;49.398;2023-07-31T02:38:28;19.38;73.76
69715;HTU21D;56981;53.532;49.398;2023-07-31T02:40:54;19.35;72.77
69715;HTU21D;56981;53.532;49.398;2023-07-31T02:43:20;19.33;73.35
69715;HTU21D;56981;53.532;49.398;2023-07-31T02:45:51;19.42;73.51
69715;HTU21D;56981;53.532;49.398;2023-07-31T02:48:17;19.43;73.96
69715;HTU21D;56981;53.532;49.398;2023-07-31T02:50:43;19.43;72.53
69715;HTU21D;56981;53.532;49.398;2023-07-31T02:53:09;19.40;72.67
69715;HTU21D;56981;53.532;49.398;2023-07-31T02:55:35;19.39;73.58
69715;HTU21D;56981;53.532;49.398;2023-07-31T02:58:01;19.50;72.70
69715;HTU21D;56981;53.532;49.398;2023-07-31T03:00:27;19.60;72.53
69715;HTU21D;56981;53.532;49.398;2023-07-31T03:02:53;19.69;71.87
69715;HTU21D;56981;53.532;49.398;2023-07-31T03:05:19;19.68;72.03
69715;HTU21D;56981;53.532;49.398;2023-07-31T03:07:45;19.74;71.34
69715;HTU21D;56981;53.532;49.398;2023-07-31T03:10:11;19.81;71.93
69715;HTU21D;56981;53.532;49.398;2023-07-31T03:12:37;19.74;70.63
69715;HTU21D;56981;53.532;49.398;2023-07-31T03:15:03;19.72;70.74
69715;HTU21D;56981;53.532;49.398;2023-07-31T03:17:29;19.73;72.24
69715;HTU21D;56981;53.532;49.398;2023-07-31T03:19:55;19.82;71.42
69715;HTU21D;56981;53.532;49.398;2023-07-31T03:22:21;19.82;71.58
69715;HTU21D;56981;53.532;49.398;2023-07-31T03:24:47;19.65;70.62
69715;HTU21D;56981;53.532;49.398;2023-07-31T03:27:13;19.51;71.45
69715;HTU21D;56981;53.532;49.398;2023-07-31T03:29:39;19.55;71.93
69715;HTU21D;56981;53.532;49.398;2023-07-31T03:32:05;19.59;71.47
69715;HTU21D;56981;53.532;49.398;2023-07-31T03:34:31;19.61;71.15
69715;HTU21D;56981;53.532;49.398;2023-07-31T03:36:58;19.65;71.06
69715;HTU21D;56981;53.532;49.398;2023-07-31T03:39:24;19.76;71.64
69715;HTU21D;56981;53.532;49.398;2023-07-31T03:41:50;19.84;70.25
69715;HTU21D;56981;53.532;49.398;2023-07-31T03:44:16;19.91;69.91
69715;HTU21D;56981;53.532;49.398;2023-07-31T03:46:42;19.74;70.42
69715;HTU21D;56981;53.532;49.398;2023-07-31T03:49:08;19.82;70.35
69715;HTU21D;56981;53.532;49.398;2023-07-31T03:51:34;19.82;69.99
69715;HTU21D;56981;53.532;49.398;2023-07-31T03:54:00;19.89;69.76
69715;HTU21D;56981;53.532;49.398;2023-07-31T03:56:26;19.92;70.65
69715;HTU21D;56981;53.532;49.398;2023-07-31T03:58:52;19.99;69.68
69715;HTU21D;56981;53.532;49.398;2023-07-31T04:01:19;19.96;69.68
69715;HTU21D;56981;53.532;49.398;2023-07-31T04:03:45;20.01;70.07
69715;HTU21D;56981;53.532;49.398;2023-07-31T04:06:11;20.03;69.97
69715;HTU21D;56981;53.532;49.398;2023-07-31T04:08:37;20.13;70.43
69715;HTU21D;56981;53.532;49.398;2023-07-31T04:11:03;20.19;69.03
69715;HTU21D;56981;53.532;49.398;2023-07-31T04:13:30;20.24;69.28
69715;HTU21D;56981;53.532;49.398;2023-07-31T04:15:56;20.29;69.36
69715;HTU21D;56981;53.532;49.398;2023-07-31T04:18:24;20.25;68.30
69715;HTU21D;56981;53.532;49.398;2023-07-31T04:20:51;20.29;68.84
69715;HTU21D;56981;53.532;49.398;2023-07-31T04:23:17;20.36;68.91
69715;HTU21D;56981;53.532;49.398;2023-07-31T04:25:42;20.39;68.68
69715;HTU21D;56981;53.532;49.398;2023-07-31T04:28:08;20.45;68.64
69715;HTU21D;56981;53.532;49.398;2023-07-31T04:30:34;20.51;68.24
69715;HTU21D;56981;53.532;49.398;2023-07-31T04:33:02;20.50;67.94
69715;HTU21D;56981;53.532;49.398;2023-07-31T04:35:27;20.54;67.59
69715;HTU21D;56981;53.532;49.398;2023-07-31T04:37:53;20.66;67.27
69715;HTU21D;56981;53.532;49.398;2023-07-31T04:40:20;20.66;66.38
69715;HTU21D;56981;53.532;49.398;2023-07-31T04:42:46;20.66;66.44
69715;HTU21D;56981;53.532;49.398;2023-07-31T04:45:14;20.71;66.51
69715;HTU21D;56981;53.532;49.398;2023-07-31T04:47:40;20.81;66.81
69715;HTU21D;56981;53.532;49.398;2023-07-31T04:50:06;20.91;65.95
69715;HTU21D;56981;53.532;49.398;2023-07-31T04:52:32;21.03;65.98
69715;HTU21D;56981;53.532;49.398;2023-07-31T04:54:58;20.90;64.47
69715;HTU21D;56981;53.532;49.398;2023-07-31T04:57:29;21.04;64.98
69715;HTU21D;56981;53.532;49.398;2023-07-31T04:59:55;21.11;65.13
69715;HTU21D;56981;53.532;49.398;2023-07-31T05:02:21;21.09;65.40
69715;HTU21D;56981;53.532;49.398;2023-07-31T05:04:47;21.15;65.40
69715;HTU21D;56981;53.532;49.398;2023-07-31T05:07:13;21.15;65.78
69715;HTU21D;56981;53.532;49.398;2023-07-31T05:09:39;21.02;64.17
69715;HTU21D;56981;53.532;49.398;2023-07-31T05:12:05;20.96;64.57
69715;HTU21D;56981;53.532;49.398;2023-07-31T05:14:31;20.88;65.30
69715;HTU21D;56981;53.532;49.398;2023-07-31T05:16:57;20.81;65.08
69715;HTU21D;56981;53.532;49.398;2023-07-31T05:19:23;20.80;65.69
69715;HTU21D;56981;53.532;49.398;2023-07-31T05:21:49;20.83;66.09
69715;HTU21D;56981;53.532;49.398;2023-07-31T05:24:15;20.89;65.98
69715;HTU21D;56981;53.532;49.398;2023-07-31T05:26:41;20.87;66.23
69715;HTU21D;56981;53.532;49.398;2023-07-31T05:29:07;20.86;66.93
69715;HTU21D;56981;53.532;49.398;2023-07-31T05:31:33;20.84;66.71
69715;HTU21D;56981;53.532;49.398;2023-07-31T05:33:59;20.91;65.89
69715;HTU21D;56981;53.532;49.398;2023-07-31T05:36:25;20.94;66.81
69715;HTU21D;56981;53.532;49.398;2023-07-31T05:38:51;21.03;66.49
69715;HTU21D;56981;53.532;49.398;2023-07-31T05:41:17;20.99;66.79
69715;HTU21D;56981;53.532;49.398;2023-07-31T05:43:44;20.89;65.95
69715;HTU21D;56981;53.532;49.398;2023-07-31T05:46:09;20.77;64.86
69715;HTU21D;56981;53.532;49.398;2023-07-31T05:48:37;20.65;65.30
69715;HTU21D;56981;53.532;49.398;2023-07-31T05:51:03;20.71;65.43
69715;HTU21D;56981;53.532;49.398;2023-07-31T05:53:29;20.79;66.11
69715;HTU21D;56981;53.532;49.398;2023-07-31T05:55:55;20.84;65.36
69715;HTU21D;56981;53.532;49.398;2023-07-31T05:58:21;20.73;65.44
69715;HTU21D;56981;53.532;49.398;2023-07-31T06:00:47;20.86;65.43
69715;HTU21D;56981;53.532;49.398;2023-07-31T06:03:13;20.84;64.36
69715;HTU21D;56981;53.532;49.398;2023-07-31T06:05:39;20.95;65.51
69715;HTU21D;56981;53.532;49.398;2023-07-31T06:08:05;20.96;64.05
69715;HTU21D;56981;53.532;49.398;2023-07-31T06:10:31;20.89;63.63
69715;HTU21D;56981;53.532;49.398;2023-07-31T06:12:57;20.87;65.41
69715;HTU21D;56981;53.532;49.398;2023-07-31T06:15:23;20.91;63.43
69715;HTU21D;56981;53.532;49.398;2023-07-31T06:17:49;20.79;63.78
69715;HTU21D;56981;53.532;49.398;2023-07-31T06:20:15;20.80;64.63
69715;HTU21D;56981;53.532;49.398;2023-07-31T06:22:41;20.63;63.95
69715;HTU21D;56981;53.532;49.398;2023-07-31T06:25:07;20.53;64.71
69715;HTU21D;56981;53.532;49.398;2023-07-31T06:27:33;20.50;64.02
69715;HTU21D;56981;53.532;49.398;2023-07-31T06:29:59;20.48;64.43
69715;HTU21D;56981;53.532;49.398;2023-07-31T06:32:25;20.61;65.15
69715;HTU21D;56981;53.532;49.398;2023-07-31T06:34:51;20.63;64.15
69715;HTU21D;56981;53.532;49.398;2023-07-31T06:37:17;20.76;64.06
69715;HTU21D;56981;53.532;49.398;2023-07-31T06:39:43;20.85;65.14
69715;HTU21D;56981;53.532;49.398;2023-07-31T06:42:09;20.94;63.87
69715;HTU21D;56981;53.532;49.398;2023-07-31T06:44:35;21.09;63.49
69715;HTU21D;56981;53.532;49.398;2023-07-31T06:47:01;21.02;63.07
69715;HTU21D;56981;53.532;49.398;2023-07-31T06:49:27;20.96;64.11
69715;HTU21D;56981;53.532;49.398;2023-07-31T06:51:53;20.84;64.62
69715;HTU21D;56981;53.532;49.398;2023-07-31T06:54:19;20.93;64.25
69715;HTU21D;56981;53.532;49.398;2023-07-31T06:56:45;21.08;64.95
69715;HTU21D;56981;53.532;49.398;2023-07-31T06:59:11;21.16;63.83
69715;HTU21D;56981;53.532;49.398;2023-07-31T07:01:38;21.20;63.32
69715;HTU21D;56981;53.532;49.398;2023-07-31T07:04:04;21.37;63.69
69715;HTU21D;56981;53.532;49.398;2023-07-31T07:06:30;21.51;63.18
69715;HTU21D;56981;53.532;49.398;2023-07-31T07:08:56;21.54;62.31
69715;HTU21D;56981;53.532;49.398;2023-07-31T07:11:22;21.52;62.85
69715;HTU21D;56981;53.532;49.398;2023-07-31T07:13:49;21.68;62.26
69715;HTU21D;56981;53.532;49.398;2023-07-31T07:16:15;21.69;61.95
69715;HTU21D;56981;53.532;49.398;2023-07-31T07:18:41;21.73;61.45
69715;HTU21D;56981;53.532;49.398;2023-07-31T07:21:07;21.68;61.47
69715;HTU21D;56981;53.532;49.398;2023-07-31T07:23:34;21.67;62.82
69715;HTU21D;56981;53.532;49.398;2023-07-31T07:26:00;21.50;62.84
69715;HTU21D;56981;53.532;49.398;2023-07-31T07:28:25;21.51;62.57
69715;HTU21D;56981;53.532;49.398;2023-07-31T07:30:52;21.49;63.52
69715;HTU21D;56981;53.532;49.398;2023-07-31T07:33:21;21.58;64.48
69715;HTU21D;56981;53.532;49.398;2023-07-31T07:35:47;21.65;63.07
69715;HTU21D;56981;53.532;49.398;2023-07-31T07:38:14;21.73;63.14
69715;HTU21D;56981;53.532;49.398;2023-07-31T07:40:41;21.78;63.17
69715;HTU21D;56981;53.532;49.398;2023-07-31T07:43:07;21.88;61.84
69715;HTU21D;56981;53.532;49.398;2023-07-31T07:45:33;21.94;62.38
69715;HTU21D;56981;53.532;49.398;2023-07-31T07:47:59;22.17;61.94
69715;HTU21D;56981;53.532;49.398;2023-07-31T07:50:25;22.22;61.41
69715;HTU21D;56981;53.532;49.398;2023-07-31T07:52:51;22.46;61.58
69715;HTU21D;56981;53.532;49.398;2023-07-31T07:55:17;22.70;60.57
69715;HTU21D;56981;53.532;49.398;2023-07-31T07:57:43;23.21;58.68
69715;HTU21D;56981;53.532;49.398;2023-07-31T08:00:11;23.49;58.09
69715;HTU21D;56981;53.532;49.398;2023-07-31T08:02:37;23.81;56.82
69715;HTU21D;56981;53.532;49.398;2023-07-31T08:05:03;23.57;57.03
69715;HTU21D;56981;53.532;49.398;2023-07-31T08:07:29;23.46;57.48
69715;HTU21D;56981;53.532;49.398;2023-07-31T08:09:55;23.30;57.08
69715;HTU21D;56981;53.532;49.398;2023-07-31T08:12:21;23.23;57.71
69715;HTU21D;56981;53.532;49.398;2023-07-31T08:14:47;23.08;59.38
69715;HTU21D;56981;53.532;49.398;2023-07-31T08:17:13;23.10;59.98
69715;HTU21D;56981;53.532;49.398;2023-07-31T08:19:39;23.20;59.30
69715;HTU21D;56981;53.532;49.398;2023-07-31T08:22:05;23.29;58.83
69715;HTU21D;56981;53.532;49.398;2023-07-31T08:24:31;23.37;58.75
69715;HTU21D;56981;53.532;49.398;2023-07-31T08:26:57;23.34;58.17
69715;HTU21D;56981;53.532;49.398;2023-07-31T08:29:23;23.58;57.82
69715;HTU21D;56981;53.532;49.398;2023-07-31T08:31:50;23.68;57.04
69715;HTU21D;56981;53.532;49.398;2023-07-31T08:34:16;23.73;57.36
69715;HTU21D;56981;53.532;49.398;2023-07-31T08:36:42;23.64;57.95
69715;HTU21D;56981;53.532;49.398;2023-07-31T08:39:08;23.38;57.65
69715;HTU21D;56981;53.532;49.398;2023-07-31T08:41:38;23.41;57.26
69715;HTU21D;56981;53.532;49.398;2023-07-31T08:44:06;23.36;57.29
69715;HTU21D;56981;53.532;49.398;2023-07-31T08:46:33;23.13;59.55
69715;HTU21D;56981;53.532;49.398;2023-07-31T08:49:00;23.13;59.70
69715;HTU21D;56981;53.532;49.398;2023-07-31T08:51:27;23.07;58.54
69715;HTU21D;56981;53.532;49.398;2023-07-31T08:53:53;23.09;59.19
69715;HTU21D;56981;53.532;49.398;2023-07-31T08:56:19;22.97;58.89
69715;HTU21D;56981;53.532;49.398;2023-07-31T08:58:46;23.08;60.40
69715;HTU21D;56981;53.532;49.398;2023-07-31T09:01:13;23.01;58.63
69715;HTU21D;56981;53.532;49.398;2023-07-31T09:03:41;22.76;59.00
69715;HTU21D;56981;53.532;49.398;2023-07-31T09:06:08;22.96;59.46
69715;HTU21D;56981;53.532;49.398;2023-07-31T09:08:35;23.08;59.37
69715;HTU21D;56981;53.532;49.398;2023-07-31T09:11:03;22.87;59.54
69715;HTU21D;56981;53.532;49.398;2023-07-31T09:13:32;22.96;59.21
69715;HTU21D;56981;53.532;49.398;2023-07-31T09:15:59;22.72;58.58
69715;HTU21D;56981;53.532;49.398;2023-07-31T09:18:25;22.85;59.28
69715;HTU21D;56981;53.532;49.398;2023-07-31T09:21:05;23.10;59.35
69715;HTU21D;56981;53.532;49.398;2023-07-31T09:23:42;23.27;57.79
69715;HTU21D;56981;53.532;49.398;2023-07-31T09:26:09;23.16;56.55
69715;HTU21D;56981;53.532;49.398;2023-07-31T09:28:35;23.11;57.36
69715;HTU21D;56981;53.532;49.398;2023-07-31T09:31:01;23.34;56.58
69715;HTU21D;56981;53.532;49.398;2023-07-31T09:33:27;23.43;56.42
69715;HTU21D;56981;53.532;49.398;2023-07-31T09:35:53;23.54;56.00
69715;HTU21D;56981;53.532;49.398;2023-07-31T09:38:18;23.72;55.93
69715;HTU21D;56981;53.532;49.398;2023-07-31T09:40:48;24.08;54.57
69715;HTU21D;56981;53.532;49.398;2023-07-31T09:43:21;24.33;54.18
69715;HTU21D;56981;53.532;49.398;2023-07-31T09:45:52;24.15;55.22
69715;HTU21D;56981;53.532;49.398;2023-07-31T09:48:19;24.24;55.83
69715;HTU21D;56981;53.532;49.398;2023-07-31T09:50:48;24.45;53.09
69715;HTU21D;56981;53.532;49.398;2023-07-31T09:53:16;24.44;54.63
69715;HTU21D;56981;53.532;49.398;2023-07-31T09:55:46;24.39;52.91
69715;HTU21D;56981;53.532;49.398;2023-07-31T09:58:12;24.38;53.64
69715;HTU21D;56981;53.532;49.398;2023-07-31T10:00:39;24.59;53.63
69715;HTU21D;56981;53.532;49.398;2023-07-31T10:03:07;24.46;53.81
69715;HTU21D;56981;53.532;49.398;2023-07-31T10:05:40;24.46;52.18
69715;HTU21D;56981;53.532;49.398;2023-07-31T10:08:09;24.35;53.39
69715;HTU21D;56981;53.532;49.398;2023-07-31T10:10:41;24.41;52.45
69715;HTU21D;56981;53.532;49.398;2023-07-31T10:13:08;24.34;53.34
69715;HTU21D;56981;53.532;49.398;2023-07-31T10:15:35;24.28;52.89
69715;HTU21D;56981;53.532;49.398;2023-07-31T10:18:02;24.40;53.62
69715;HTU21D;56981;53.532;49.398;2023-07-31T10:20:31;24.35;53.01
69715;HTU21D;56981;53.532;49.398;2023-07-31T10:22:58;24.49;52.53
69715;HTU21D;56981;53.532;49.398;2023-07-31T10:25:26;24.43;52.99
69715;HTU21D;56981;53.532;49.398;2023-07-31T10:27:53;24.54;53.09
69715;HTU21D;56981;53.532;49.398;2023-07-31T10:30:22;24.57;53.38
69715;HTU21D;56981;53.532;49.398;2023-07-31T10:32:51;24.38;53.42
69715;HTU21D;56981;53.532;49.398;2023-07-31T10:35:18;24.04;52.76
69715;HTU21D;56981;53.532;49.398;2023-07-31T10:37:44;23.87;53.31
69715;HTU21D;56981;53.532;49.398;2023-07-31T10:40:19;23.83;54.92
69715;HTU21D;56981;53.532;49.398;2023-07-31T10:42:51;23.70;53.39
69715;HTU21D;56981;53.532;49.398;2023-07-31T10:45:50;23.75;54.46
69715;HTU21D;56981;53.532;49.398;2023-07-31T10:48:16;23.68;53.11
69715;HTU21D;56981;53.532;49.398;2023-07-31T10:50:55;23.59;53.97
69715;HTU21D;56981;53.532;49.398;2023-07-31T10:53:28;23.38;54.47
69715;HTU21D;56981;53.532;49.398;2023-07-31T10:58:28;23.16;55.48
69715;HTU21D;56981;53.532;49.398;2023-07-31T11:00:59;23.14;55.84
69715;HTU21D;56981;53.532;49.398;2023-07-31T11:03:27;23.06;56.72
69715;HTU21D;56981;53.532;49.398;2023-07-31T11:06:06;23.07;57.39
69715;HTU21D;56981;53.532;49.398;2023-07-31T11:08:33;23.10;57.62
69715;HTU21D;56981;53.532;49.398;2023-07-31T11:13:39;22.98;57.35
69715;HTU21D;56981;53.532;49.398;2023-07-31T11:16:06;23.02;58.59
69715;HTU21D;56981;53.532;49.398;2023-07-31T11:18:32;23.05;57.43
69715;HTU21D;56981;53.532;49.398;2023-07-31T11:20:58;23.18;57.16
69715;HTU21D;56981;53.532;49.398;2023-07-31T11:23:24;23.17;57.36
69715;HTU21D;56981;53.532;49.398;2023-07-31T11:25:50;23.31;56.42
69715;HTU21D;56981;53.532;49.398;2023-07-31T11:28:18;23.37;55.99
69715;HTU21D;56981;53.532;49.398;2023-07-31T11:30:45;23.34;56.08
69715;HTU21D;56981;53.532;49.398;2023-07-31T11:33:13;23.18;56.65
69715;HTU21D;56981;53.532;49.398;2023-07-31T11:35:45;23.06;57.70
69715;HTU21D;56981;53.532;49.398;2023-07-31T11:38:32;23.01;57.19
69715;HTU21D;56981;53.532;49.398;2023-07-31T11:40:59;23.07;57.06
69715;HTU21D;56981;53.532;49.398;2023-07-31T11:43:26;23.00;58.19
69715;HTU21D;56981;53.532;49.398;2023-07-31T11:45:54;22.94;58.19
69715;HTU21D;56981;53.532;49.398;2023-07-31T11:48:22;22.97;58.62
69715;HTU21D;56981;53.532;49.398;2023-07-31T11:50:49;22.97;58.70
69715;HTU21D;56981;53.532;49.398;2023-07-31T11:53:18;23.03;58.62
69715;HTU21D;56981;53.532;49.398;2023-07-31T11:55:45;23.07;58.93
69715;HTU21D;56981;53.532;49.398;2023-07-31T11:58:13;23.02;59.00
69715;HTU21D;56981;53.532;49.398;2023-07-31T12:00:40;23.05;58.22
69715;HTU21D;56981;53.532;49.398;2023-07-31T12:03:07;23.07;58.72
69715;HTU21D;56981;53.532;49.398;2023-07-31T12:05:33;23.14;57.87
69715;HTU21D;56981;53.532;49.398;2023-07-31T12:07:59;23.18;58.84
69715;HTU21D;56981;53.532;49.398;2023-07-31T12:10:29;23.30;57.91
69715;HTU21D;56981;53.532;49.398;2023-07-31T12:13:10;23.28;58.31
69715;HTU21D;56981;53.532;49.398;2023-07-31T12:15:43;23.37;58.22
69715;HTU21D;56981;53.532;49.398;2023-07-31T12:18:11;23.35;57.43
69715;HTU21D;56981;53.532;49.398;2023-07-31T12:21:08;23.40;58.35
69715;HTU21D;56981;53.532;49.398;2023-07-31T12:23:36;23.59;57.72
69715;HTU21D;56981;53.532;49.398;2023-07-31T12:28:28;23.70;56.74
69715;HTU21D;56981;53.532;49.398;2023-07-31T12:30:59;23.73;59.23
69715;HTU21D;56981;53.532;49.398;2023-07-31T12:33:34;23.77;57.33
69715;HTU21D;56981;53.532;49.398;2023-07-31T12:36:08;23.88;57.55
69715;HTU21D;56981;53.532;49.398;2023-07-31T12:38:34;23.95;56.90
69715;HTU21D;56981;53.532;49.398;2023-07-31T12:41:01;23.86;56.81
69715;HTU21D;56981;53.532;49.398;2023-07-31T12:43:27;23.97;56.89
69715;HTU21D;56981;53.532;49.398;2023-07-31T12:45:54;24.20;56.14
69715;HTU21D;56981;53.532;49.398;2023-07-31T12:48:20;24.26;56.42
69715;HTU21D;56981;53.532;49.398;2023-07-31T12:50:46;24.20;56.20
69715;HTU21D;56981;53.532;49.398;2023-07-31T12:53:12;24.33;55.54
69715;HTU21D;56981;53.532;49.398;2023-07-31T12:55:38;24.45;55.57
69715;HTU21D;56981;53.532;49.398;2023-07-31T12:58:04;24.54;55.07
69715;HTU21D;56981;53.532;49.398;2023-07-31T13:00:30;24.49;55.35
69715;HTU21D;56981;53.532;49.398;2023-07-31T13:02:56;24.35;55.38
69715;HTU21D;56981;53.532;49.398;2023-07-31T13:05:22;24.27;55.16
69715;HTU21D;56981;53.532;49.398;2023-07-31T13:07:48;24.28;55.31
69715;HTU21D;56981;53.532;49.398;2023-07-31T13:10:14;24.18;55.70
69715;HTU21D;56981;53.532;49.398;2023-07-31T13:12:40;24.16;56.08
69715;HTU21D;56981;53.532;49.398;2023-07-31T13:15:07;24.30;55.54
69715;HTU21D;56981;53.532;49.398;2023-07-31T13:17:35;24.39;55.71
69715;HTU21D;56981;53.532;49.398;2023-07-31T13:20:01;24.51;55.07
69715;HTU21D;56981;53.532;49.398;2023-07-31T13:22:27;24.45;54.64
69715;HTU21D;56981;53.532;49.398;2023-07-31T13:24:53;24.35;55.42
69715;HTU21D;56981;53.532;49.398;2023-07-31T13:27:18;24.33;55.56
69715;HTU21D;56981;53.532;49.398;2023-07-31T13:29:51;24.38;55.45
69715;HTU21D;56981;53.532;49.398;2023-07-31T13:32:17;24.33;55.30
69715;HTU21D;56981;53.532;49.398;2023-07-31T13:34:44;24.26;55.23
69715;HTU21D;56981;53.532;49.398;2023-07-31T13:37:10;24.29;56.17
69715;HTU21D;56981;53.532;49.398;2023-07-31T13:39:36;24.14;56.36
69715;HTU21D;56981;53.532;49.398;2023-07-31T13:42:03;24.02;56.50
69715;HTU21D;56981;53.532;49.398;2023-07-31T13:44:32;23.88;57.13
69715;HTU21D;56981;53.532;49.398;2023-07-31T13:46:59;23.79;57.48
69715;HTU21D;56981;53.532;49.398;2023-07-31T13:49:26;23.81;56.48
69715;HTU21D;56981;53.532;49.398;2023-07-31T13:51:52;23.81;57.11
69715;HTU21D;56981;53.532;49.398;2023-07-31T13:54:18;23.73;56.84
69715;HTU21D;56981;53.532;49.398;2023-07-31T13:56:44;23.81;57.13
69715;HTU21D;56981;53.532;49.398;2023-07-31T13:59:11;23.67;57.36
69715;HTU21D;56981;53.532;49.398;2023-07-31T14:01:37;23.66;57.49
69715;HTU21D;56981;53.532;49.398;2023-07-31T14:04:03;23.57;57.10
69715;HTU21D;56981;53.532;49.398;2023-07-31T14:06:29;23.55;57.11
69715;HTU21D;56981;53.532;49.398;2023-07-31T14:08:55;23.44;57.53
69715;HTU21D;56981;53.532;49.398;2023-07-31T14:11:24;23.39;57.84
69715;HTU21D;56981;53.532;49.398;2023-07-31T14:13:50;23.52;57.57
69715;HTU21D;56981;53.532;49.398;2023-07-31T14:16:17;23.55;57.59
69715;HTU21D;56981;53.532;49.398;2023-07-31T14:18:43;23.56;57.64
69715;HTU21D;56981;53.532;49.398;2023-07-31T14:21:11;23.59;57.37
69715;HTU21D;56981;53.532;49.398;2023-07-31T14:23:37;23.71;57.45
69715;HTU21D;56981;53.532;49.398;2023-07-31T14:26:03;23.70;57.10
69715;HTU21D;56981;53.532;49.398;2023-07-31T14:28:29;23.70;57.03
69715;HTU21D;56981;53.532;49.398;2023-07-31T14:30:55;23.68;57.07
69715;HTU21D;56981;53.532;49.398;2023-07-31T14:33:22;23.71;57.72
69715;HTU21D;56981;53.532;49.398;2023-07-31T14:35:47;23.73;57.60
69715;HTU21D;56981;53.532;49.398;2023-07-31T14:38:13;23.73;57.93
69715;HTU21D;56981;53.532;49.398;2023-07-31T14:40:39;23.83;57.58
69715;HTU21D;56981;53.532;49.398;2023-07-31T14:43:06;23.94;57.64
69715;HTU21D;56981;53.532;49.398;2023-07-31T14:45:31;23.96;57.64
69715;HTU21D;56981;53.532;49.398;2023-07-31T14:47:57;23.88;57.52
69715;HTU21D;56981;53.532;49.398;2023-07-31T14:50:24;23.88;57.05
69715;HTU21D;56981;53.532;49.398;2023-07-31T14:52:50;23.90;57.32
69715;HTU21D;56981;53.532;49.398;2023-07-31T14:55:17;23.94;57.66
69715;HTU21D;56981;53.532;49.398;2023-07-31T14:57:43;23.97;57.42
69715;HTU21D;56981;53.532;49.398;2023-07-31T15:00:10;24.00;57.35
69715;HTU21D;56981;53.532;49.398;2023-07-31T15:02:37;24.01;57.56
69715;HTU21D;56981;53.532;49.398;2023-07-31T15:05:04;24.05;57.12
69715;HTU21D;56981;53.532;49.398;2023-07-31T15:07:32;24.12;57.56
69715;HTU21D;56981;53.532;49.398;2023-07-31T15:09:58;24.13;57.00
69715;HTU21D;56981;53.532;49.398;2023-07-31T15:12:24;24.05;57.75
69715;HTU21D;56981;53.532;49.398;2023-07-31T15:14:51;23.99;57.52